Time;durP1;ratioP1;P1;durP2;ratioP2;P2;SDS_P1;SDS_P2;PMS_P1;PMS_P2;Temp;Humidity;BMP_temperature;BMP_pressure;BME280_temperature;BME280_humidity;BME280_pressure;Samples;Min_cycle;Max_cycle;Signal;HPM_P1;HPM_P2
2022/11/11 00:02:26;;;;;;;15.40;12.35;;;;;;;8.96;100.00;100645.97;1728805;80;20176;-51
2022/11/11 00:05:11;;;;;;;;;;;;;;;8.95;100.00;100650.91;1723185;81;21832;-50
2022/11/11 00:07:58;;;;;;;15.95;13.20;;;;;;;8.94;100.00;100646.47;1715335;81;20219;-50
2022/11/11 00:10:43;;;;;;;15.08;12.98;;;;;;;8.93;100.00;100651.45;1715216;81;21050;-52
2022/11/11 00:13:29;;;;;;;15.68;11.35;;;;;;;8.92;100.00;100658.62;1713326;81;21074;-51
2022/11/11 00:16:16;;;;;;;;;;;;;;;8.93;100.00;100652.30;1709378;81;21098;-50
2022/11/11 00:25:16;;;;;;;13.20;10.82;;;;;;;8.95;100.00;100660.31;1712242;81;21065;-51
2022/11/11 00:28:01;;;;;;;13.83;11.00;;;;;;;8.95;100.00;100654.94;1711863;81;21038;-50
2022/11/11 00:30:47;;;;;;;16.27;12.23;;;;;;;8.94;100.00;100657.20;1713779;81;21152;-50
2022/11/11 00:33:32;;;;;;;16.35;12.55;;;;;;;8.93;100.00;100659.01;1714918;81;23438;-51
2022/11/11 00:36:18;;;;;;;15.80;12.07;;;;;;;8.94;100.00;100663.92;1715307;81;21078;-50
2022/11/11 00:39:03;;;;;;;13.68;11.15;;;;;;;8.94;100.00;100657.20;1708839;81;21574;-50
2022/11/11 00:41:48;;;;;;;;;;;;;;;8.94;100.00;100658.09;1713096;81;21133;-50
2022/11/11 00:44:33;;;;;;;14.40;11.25;;;;;;;8.94;100.00;100655.86;1711590;81;28061;-49
2022/11/11 00:53:35;;;;;;;11.03;9.45;;;;;;;8.94;100.00;100653.17;1575048;89;21152;-50
2022/11/11 00:56:20;;;;;;;9.90;8.73;;;;;;;8.95;100.00;100657.63;1571858;89;21169;-50
2022/11/11 00:59:06;;;;;;;13.93;9.58;;;;;;;8.94;100.00;100654.06;1644183;83;21058;-50
2022/11/11 01:01:51;;;;;;;10.08;8.08;;;;;;;8.94;100.00;100658.09;1677874;83;22451;-49
2022/11/11 01:04:36;;;;;;;12.53;9.18;;;;;;;8.95;100.00;100661.66;1674770;83;21637;-49
2022/11/11 01:07:22;;;;;;;10.15;8.30;;;;;;;8.96;100.00;100657.59;1673995;83;21547;-49
2022/11/11 01:10:07;;;;;;;;;;;;;;;8.98;100.00;100662.92;1679238;83;21481;-49
2022/11/11 01:13:10;;;;;;;8.90;8.20;;;;;;;8.98;100.00;100662.92;1672759;83;21483;-49
2022/11/11 01:15:43;;;;;;;10.30;9.20;;;;;;;8.97;100.00;100666.53;1673077;83;21940;-50
2022/11/11 01:18:28;;;;;;;10.43;8.90;;;;;;;8.97;100.00;100667.87;1675129;83;21108;-49
2022/11/11 01:21:15;;;;;;;9.23;8.35;;;;;;;8.96;100.00;100680.42;1676767;83;21196;-49
2022/11/11 01:24:02;;;;;;;9.78;8.88;;;;;;;8.96;100.00;100671.02;1672258;83;21090;-50
2022/11/11 01:26:47;;;;;;;9.18;7.75;;;;;;;8.96;100.00;100680.42;1675700;83;21113;-51
2022/11/11 01:29:32;;;;;;;8.63;7.90;;;;;;;8.97;100.00;100678.62;1675369;83;21884;-49
2022/11/11 01:32:19;;;;;;;9.08;8.18;;;;;;;8.97;100.00;100675.47;1672805;83;21613;-50
2022/11/11 01:35:04;;;;;;;;;;;;;;;8.96;100.00;100675.05;1674734;83;21147;-51
2022/11/11 01:37:51;;;;;;;9.45;7.33;;;;;;;8.96;100.00;100676.39;1674158;83;20644;-51
2022/11/11 01:40:43;;;;;;;8.63;7.37;;;;;;;8.98;100.00;100676.36;1679256;83;21081;-51
2022/11/11 01:43:28;;;;;;;7.45;6.80;;;;;;;8.99;100.00;100678.13;1677856;83;22412;-51
2022/11/11 01:46:24;;;;;;;7.65;6.83;;;;;;;8.99;100.00;100683.49;1672671;83;21064;-50
2022/11/11 01:49:28;;;;;;;6.10;5.60;;;;;;;8.99;100.00;100679.00;1675547;83;21453;-51
2022/11/11 01:52:26;;;;;;;7.75;5.85;;;;;;;9.00;100.00;100685.26;1676248;83;21093;-50
2022/11/11 01:55:19;;;;;;;6.28;5.60;;;;;;;9.01;100.00;100685.22;1680011;83;21066;-50
2022/11/11 01:58:10;;;;;;;6.25;5.75;;;;;;;9.03;100.00;100691.41;1673958;83;21797;-51
2022/11/11 02:00:57;;;;;;;5.47;5.08;;;;;;;9.04;100.00;100691.83;1681619;83;20995;-50
2022/11/11 02:05:40;;;;;;;5.10;4.60;;;;;;;9.05;100.00;100690.91;1678454;83;20994;-50
2022/11/11 02:06:30;;;;;;;5.17;4.78;;;;;;;9.07;100.00;100691.76;1673001;83;21003;-50
2022/11/11 02:09:16;;;;;;;6.65;5.05;;;;;;;9.10;100.00;100690.80;1715460;81;21053;-51
2022/11/11 02:15:07;;;;;;;4.65;4.22;;;;;;;9.12;100.00;100699.67;1719846;81;21442;-50
2022/11/11 02:17:53;;;;;;;9.03;4.45;;;;;;;9.10;100.00;100698.37;1717083;81;21339;-50
2022/11/11 02:20:41;;;;;;;;;;;;;;;9.11;100.00;100699.25;1716911;81;21034;-50
2022/11/11 02:23:37;;;;;;;5.50;4.55;;;;;;;9.12;100.00;100703.70;1713494;81;20149;-51
2022/11/11 02:26:22;;;;;;;5.87;4.03;;;;;;;9.14;100.00;100699.64;1714959;81;22694;-50
2022/11/11 02:29:12;;;;;;;6.85;3.70;;;;;;;9.14;100.00;100703.67;1703763;81;21152;-51
2022/11/11 02:31:57;;;;;;;3.83;3.52;;;;;;;9.15;100.00;100696.92;1713032;81;21392;-51
2022/11/11 02:34:42;;;;;;;7.17;4.25;;;;;;;9.14;100.00;100699.18;1683835;81;21515;-49
2022/11/11 02:37:27;;;;;;;4.15;3.80;;;;;;;9.17;100.00;100703.60;1712989;81;21360;-51
2022/11/11 02:40:15;;;;;;;;;;;;;;;9.18;100.00;100701.34;1717108;81;21901;-51
2022/11/11 02:43:00;;;;;;;3.42;3.12;;;;;;;9.17;100.00;100701.80;1713520;81;20711;-51
2022/11/11 02:45:45;;;;;;;4.03;3.72;;;;;;;9.16;100.00;100700.03;1717153;81;21042;-49
2022/11/11 02:48:30;;;;;;;;;;;;;;;9.17;100.00;100707.63;1711090;81;21042;-49
2022/11/11 02:51:15;;;;;;;4.28;3.80;;;;;;;9.17;100.00;100707.63;1718650;81;20773;-51
2022/11/11 02:54:00;;;;;;;4.37;3.85;;;;;;;9.17;100.00;100700.91;1712145;81;23319;-51
2022/11/11 02:59:49;;;;;;;3.83;3.58;;;;;;;9.21;100.00;100706.60;1710051;81;21596;-49
2022/11/11 03:02:34;;;;;;;2.98;2.75;;;;;;;9.20;100.00;100703.49;1715044;81;21036;-49
2022/11/11 03:05:20;;;;;;;3.25;3.05;;;;;;;9.20;100.00;100708.41;1715010;81;21033;-48
2022/11/11 03:08:05;;;;;;;4.12;3.83;;;;;;;9.21;100.00;100708.83;1718019;80;23143;-49
2022/11/11 03:10:50;;;;;;;4.22;3.42;;;;;;;9.21;100.00;100707.95;1726574;80;21026;-47
2022/11/11 03:13:35;;;;;;;4.42;4.10;;;;;;;9.21;100.00;100711.52;1721430;80;21483;-50
2022/11/11 03:19:24;;;;;;;4.28;3.75;;;;;;;9.25;100.00;100718.58;1718410;80;21033;-50
2022/11/11 03:22:09;;;;;;;5.10;3.47;;;;;;;9.25;100.00;100713.67;1725008;80;21955;-49
2022/11/11 03:27:58;;;;;;;3.35;3.15;;;;;;;9.27;100.00;100709.14;1723140;80;21093;-50
2022/11/11 03:30:46;;;;;;;3.72;3.42;;;;;;;9.28;100.00;100721.16;1720723;80;21746;-49
2022/11/11 03:33:31;;;;;;;3.00;2.80;;;;;;;9.29;100.00;100720.70;1716364;80;21050;-49
2022/11/11 03:36:16;;;;;;;5.20;3.72;;;;;;;9.29;100.00;100716.67;1720201;80;21885;-49
2022/11/11 03:39:02;;;;;;;4.65;4.35;;;;;;;9.29;100.00;100716.22;1722083;80;21069;-48
2022/11/11 03:41:47;;;;;;;3.45;3.00;;;;;;;9.32;100.00;100717.95;1718203;80;21030;-48
2022/11/11 03:44:33;;;;;;;4.28;3.40;;;;;;;9.32;100.00;100715.25;1722216;80;21086;-48
2022/11/11 03:48:04;;;;;;;4.87;4.37;;;;;;;9.30;100.00;100701.86;1773023;78;22619;-46
2022/11/11 03:50:49;;;;;;;6.95;4.70;;;;;;;9.30;100.00;100717.98;1744146;80;21053;-50
2022/11/11 03:53:34;;;;;;;5.67;4.45;;;;;;;9.30;100.00;100729.19;1738325;80;21967;-47
2022/11/11 03:56:19;;;;;;;5.15;4.75;;;;;;;9.31;100.00;100725.58;1744340;80;21654;-49
2022/11/11 03:59:04;;;;;;;4.92;4.10;;;;;;;9.31;100.00;100730.50;1741238;80;21045;-50
2022/11/11 04:11:08;;;;;;;5.20;4.80;;;;;;;9.32;100.00;100738.09;1732816;80;21415;-49
2022/11/11 04:16:56;;;;;;;6.47;5.83;;;;;;;9.34;100.00;100751.92;1727342;80;21858;-50
2022/11/11 04:22:47;;;;;;;7.75;6.55;;;;;;;9.35;100.00;100759.06;1722589;80;21945;-49
2022/11/11 04:25:48;;;;;;;11.15;6.50;;;;;;;9.36;100.00;100760.80;1725214;80;21294;-48
2022/11/11 04:32:34;;;;;;;7.85;7.08;;;;;;;9.38;100.00;100761.64;1726031;80;21590;-50
2022/11/11 04:34:23;;;;;;;13.93;7.85;;;;;;;9.42;100.00;100764.67;1725890;80;21634;-51
2022/11/11 04:37:09;;;;;;;8.73;7.15;;;;;;;9.42;100.00;100761.99;1726941;80;23383;-51
2022/11/11 04:42:57;;;;;;;7.92;7.12;;;;;;;9.42;100.00;100768.71;1725974;80;20188;-51
2022/11/11 04:45:43;;;;;;;12.03;7.55;;;;;;;9.40;100.00;100774.58;1721491;80;21085;-50
2022/11/11 04:48:29;;;;;;;12.65;8.43;;;;;;;9.39;100.00;100775.50;1730145;80;21108;-49
2022/11/11 04:51:14;;;;;;;9.23;7.87;;;;;;;9.40;100.00;100775.04;1730072;80;23410;-49
2022/11/11 04:53:59;;;;;;;10.15;8.20;;;;;;;9.38;100.00;100771.05;1724326;80;21136;-50
2022/11/11 04:56:47;;;;;;;;;;;;;;;9.40;100.00;100771.01;1727367;80;21062;-51
2022/11/11 04:59:32;;;;;;;9.88;7.67;;;;;;;9.39;100.00;100770.13;1725957;80;20189;-48
2022/11/11 05:05:22;;;;;;;8.98;7.95;;;;;;;9.36;100.00;100771.54;1722919;80;20826;-48
2022/11/11 05:11:11;;;;;;;13.58;8.90;;;;;;;9.36;100.00;100778.25;1729146;80;21033;-48
2022/11/11 05:23:12;;;;;;;15.83;9.17;;;;;;;9.38;100.00;100791.20;1728307;80;21522;-48
2022/11/11 05:25:57;;;;;;;10.55;8.83;;;;;;;9.39;100.00;100797.45;1676583;83;21037;-47
2022/11/11 05:28:42;;;;;;;10.90;9.68;;;;;;;9.38;100.00;100806.44;1686626;82;21076;-50
2022/11/11 05:31:29;;;;;;;11.15;9.15;;;;;;;9.40;100.00;100805.48;1684687;82;21084;-49
2022/11/11 05:34:13;;;;;;;11.45;8.98;;;;;;;9.41;100.00;100802.34;1687908;82;21746;-49
2022/11/11 05:36:59;;;;;;;10.80;8.83;;;;;;;9.43;100.00;100813.94;1686003;82;21578;-47
2022/11/11 05:39:44;;;;;;;10.65;9.55;;;;;;;9.46;100.00;100823.23;1686469;82;21143;-48
2022/11/11 05:42:30;;;;;;;13.13;8.80;;;;;;;9.46;100.00;100819.20;1686847;82;21541;-50
2022/11/11 05:45:15;;;;;;;9.45;7.92;;;;;;;9.48;100.00;100833.49;1682934;82;21585;-48
2022/11/11 05:48:02;;;;;;;10.75;9.28;;;;;;;9.52;100.00;100836.53;1677153;82;21487;-48
2022/11/11 05:50:47;;;;;;;11.28;8.98;;;;;;;9.54;100.00;100835.12;1698925;82;21077;-48
2022/11/11 05:53:32;;;;;;;;;;;;;;;9.58;100.00;100840.85;1680527;83;21133;-48
2022/11/11 05:56:18;;;;;;;13.93;9.50;;;;;;;9.60;100.00;100851.99;1678610;83;21880;-48
2022/11/11 05:59:04;;;;;;;11.38;9.30;;;;;;;9.63;100.00;100854.58;1689639;82;21620;-48
2022/11/11 06:01:48;;;;;;;11.63;8.33;;;;;;;9.64;100.00;100861.72;1689925;82;21794;-47
2022/11/11 06:04:34;;;;;;;9.40;8.10;;;;;;;9.67;100.00;100860.77;1677464;83;21785;-48
2022/11/11 06:07:19;;;;;;;10.20;8.33;;;;;;;9.67;100.00;100863.45;1660789;84;21405;-48
2022/11/11 06:13:09;;;;;;;11.33;9.38;;;;;;;9.70;100.00;100867.39;1678377;83;21002;-47
2022/11/11 06:15:56;;;;;;;15.00;9.90;;;;;;;9.68;100.00;100874.17;1676840;83;21570;-48
2022/11/11 06:18:41;;;;;;;12.65;10.68;;;;;;;9.68;100.00;100884.05;1676188;83;21105;-51
2022/11/11 06:21:26;;;;;;;;;;;;;;;9.70;100.00;100888.44;1674770;83;21116;-50
2022/11/11 06:24:11;;;;;;;14.05;9.18;;;;;;;9.70;100.00;100891.58;1673752;83;20186;-50
2022/11/11 06:26:56;;;;;;;13.45;9.70;;;;;;;9.69;100.00;100897.45;1677560;83;21144;-47
2022/11/11 06:29:41;;;;;;;15.18;10.75;;;;;;;9.70;100.00;100896.96;1673064;83;21836;-49
2022/11/11 06:32:27;;;;;;;14.95;10.75;;;;;;;9.69;100.00;100900.14;1665307;83;21088;-50
2022/11/11 06:35:13;;;;;;;11.40;9.55;;;;;;;9.70;100.00;100900.99;1670734;83;21046;-50
2022/11/11 06:37:57;;;;;;;12.55;9.98;;;;;;;9.71;100.00;100909.02;1690048;82;21068;-50
2022/11/11 06:40:43;;;;;;;12.47;10.08;;;;;;;9.72;100.00;100909.91;1680925;83;21076;-50
2022/11/11 06:43:28;;;;;;;13.30;10.80;;;;;;;9.73;100.00;100915.25;1675069;83;22544;-50
2022/11/11 06:46:22;;;;;;;14.35;11.40;;;;;;;9.75;100.00;100912.06;1682625;83;21438;-51
2022/11/11 06:49:07;;;;;;;14.10;11.60;;;;;;;9.75;100.00;100914.75;1629905;83;21108;-50
2022/11/11 06:51:52;;;;;;;;;;;;;;;9.76;100.00;100924.59;1650932;85;21085;-50
2022/11/11 06:54:37;;;;;;;14.10;10.95;;;;;;;9.75;100.00;100929.55;1634578;85;20184;-50
2022/11/11 06:57:22;;;;;;;19.00;12.90;;;;;;;9.73;100.00;100926.01;1658919;84;21930;-50
2022/11/11 07:00:09;;;;;;;14.00;12.03;;;;;;;9.73;100.00;100926.47;1698138;82;21424;-50
2022/11/11 07:02:56;;;;;;;16.73;12.73;;;;;;;9.73;100.00;100923.78;1700749;82;21201;-50
2022/11/11 07:05:42;;;;;;;17.57;12.05;;;;;;;9.73;100.00;100924.66;1699998;82;21052;-50
2022/11/11 07:08:27;;;;;;;15.15;11.50;;;;;;;9.74;100.00;100925.55;1700273;82;21085;-50
2022/11/11 07:11:13;;;;;;;20.97;14.00;;;;;;;9.74;100.00;100929.13;1659711;84;22038;-50
2022/11/11 07:13:58;;;;;;;17.05;12.25;;;;;;;9.76;100.00;100931.31;1698189;82;21418;-51
2022/11/11 07:16:43;;;;;;;;;;;;;;;9.79;100.00;100942.42;1698326;82;22431;-50
2022/11/11 07:19:31;;;;;;;17.70;12.35;;;;;;;9.81;100.00;100938.78;1701821;82;21066;-51
2022/11/11 07:22:17;;;;;;;17.25;12.37;;;;;;;9.82;100.00;100938.33;1700499;82;21565;-50
2022/11/11 07:25:02;;;;;;;17.02;10.43;;;;;;;9.83;100.00;100936.95;1698101;82;23292;-50
2022/11/11 07:27:47;;;;;;;15.13;11.85;;;;;;;9.85;100.00;100939.14;1699374;82;21036;-50
2022/11/11 07:30:34;;;;;;;22.87;12.43;;;;;;;9.87;100.00;100945.80;1696334;82;21094;-50
2022/11/11 07:33:20;;;;;;;15.43;12.13;;;;;;;9.92;100.00;100945.23;1700369;82;21068;-50
2022/11/11 07:36:05;;;;;;;15.93;11.93;;;;;;;9.95;100.00;100955.04;1697637;82;21030;-49
2022/11/11 07:38:50;;;;;;;16.27;12.40;;;;;;;9.98;100.00;100961.66;1703097;82;21781;-49
2022/11/11 07:41:36;;;;;;;16.45;11.83;;;;;;;9.98;100.00;100958.97;1697847;82;21082;-49
2022/11/11 07:44:21;;;;;;;17.00;11.83;;;;;;;10.00;100.00;100961.16;1694049;82;21075;-49
2022/11/11 07:47:06;;;;;;;;;;;;;;;10.03;100.00;100964.67;1704264;82;21382;-49
2022/11/11 07:49:51;;;;;;;18.02;12.37;;;;;;;10.04;100.00;100965.06;1693903;82;20181;-49
2022/11/11 07:52:36;;;;;;;18.02;13.28;;;;;;;10.06;100.00;100970.41;1696601;82;21755;-49
2022/11/11 07:55:22;;;;;;;13.78;11.48;;;;;;;10.09;100.00;100974.38;1697763;82;21099;-49
2022/11/11 07:58:08;;;;;;;15.32;10.85;;;;;;;10.11;100.00;100964.46;1700471;82;21108;-49
2022/11/11 08:00:53;;;;;;;18.62;12.28;;;;;;;10.12;100.00;100972.45;1694149;82;21148;-49
2022/11/11 08:03:48;;;;;;;13.95;10.65;;;;;;;10.16;100.00;100974.62;1696956;82;21574;-50
2022/11/11 08:06:26;;;;;;;14.55;11.00;;;;;;;10.17;100.00;100971.01;1698946;82;21849;-49
2022/11/11 08:09:11;;;;;;;15.85;11.78;;;;;;;10.20;100.00;100975.01;1701383;82;22570;-49
2022/11/11 08:14:59;;;;;;;18.10;11.57;;;;;;;10.24;100.00;100980.25;1697008;82;20184;-49
2022/11/11 08:17:46;;;;;;;15.18;11.57;;;;;;;10.26;100.00;100990.09;1698093;82;21033;-49
2022/11/11 08:20:31;;;;;;;;;;;;;;;10.30;100.00;100989.95;1697773;82;22589;-49
2022/11/11 08:23:21;;;;;;;15.58;11.60;;;;;;;10.35;100.00;100988.49;1698476;82;20645;-50
2022/11/11 08:26:05;;;;;;;13.18;10.13;;;;;;;10.39;100.00;100991.04;1703753;82;22150;-50
2022/11/11 08:28:51;;;;;;;14.63;10.58;;;;;;;10.43;100.00;100993.20;1691390;82;21073;-49
2022/11/11 08:31:38;;;;;;;12.28;10.75;;;;;;;10.47;100.00;100993.52;1697887;82;21049;-49
2022/11/11 08:34:22;;;;;;;14.43;11.10;;;;;;;10.49;100.00;100997.05;1698962;82;22642;-49
2022/11/11 08:37:07;;;;;;;15.43;10.80;;;;;;;10.51;100.00;100997.91;1695749;82;29033;-50
2022/11/11 08:39:52;;;;;;;9.18;8.20;;;;;;;10.51;100.00;100992.05;1691018;82;21069;-49
2022/11/11 08:42:38;;;;;;;14.05;10.18;;;;;;;10.53;100.00;100992.91;1692262;82;22586;-49
2022/11/11 08:45:24;;;;;;;14.20;9.73;;;;;;;10.56;100.00;100996.83;1695993;82;21053;-49
2022/11/11 08:48:09;;;;;;;12.35;9.48;;;;;;;10.58;100.00;100989.61;1708982;82;21742;-49
2022/11/11 08:50:54;;;;;;;;;;;;;;;10.59;100.00;100988.68;1733124;80;20966;-50
2022/11/11 08:53:38;;;;;;;20.48;10.03;;;;;;;10.65;100.00;100992.11;1728784;80;20184;-50
2022/11/11 08:56:23;;;;;;;12.40;9.98;;;;;;;10.65;100.00;100992.11;1728302;80;21001;-49
2022/11/11 08:59:08;;;;;;;13.32;9.83;;;;;;;10.66;100.00;100989.84;1730310;80;21055;-49
2022/11/11 09:01:53;;;;;;;13.75;9.75;;;;;;;10.67;100.00;100992.50;1725439;80;21830;-50
2022/11/11 09:04:39;;;;;;;;;;;;;;;10.69;100.00;100992.00;1729683;80;20978;-49
2022/11/11 09:07:23;;;;;;;15.38;9.68;;;;;;;10.72;100.00;100996.42;1729274;80;20156;-49
2022/11/11 09:10:08;;;;;;;11.57;9.98;;;;;;;10.73;100.00;100995.46;1730262;80;21041;-49
2022/11/11 09:12:57;;;;;;;12.45;9.53;;;;;;;10.72;100.00;100998.62;1727138;80;21459;-49
2022/11/11 09:15:42;;;;;;;15.98;10.60;;;;;;;10.74;100.00;100995.42;1724487;80;23606;-49
2022/11/11 09:18:30;;;;;;;13.70;9.10;;;;;;;10.74;100.00;100995.42;1731442;80;21507;-49
2022/11/11 09:21:15;;;;;;;13.20;9.35;;;;;;;10.76;100.00;101002.12;1728467;80;21045;-49
2022/11/11 09:24:00;;;;;;;;;;;;;;;10.78;100.00;101001.62;1737258;80;21037;-49
2022/11/11 09:26:48;;;;;;;15.27;10.07;;;;;;;10.79;100.00;101004.27;1724218;80;21065;-49
2022/11/11 09:29:34;;;;;;;14.38;10.18;;;;;;;10.80;100.00;101001.97;1727648;80;22461;-50
2022/11/11 09:32:18;;;;;;;;;;;;;;;10.80;100.00;101001.97;1732322;80;21112;-49
2022/11/11 09:35:04;;;;;;;13.55;9.93;;;;;;;10.77;100.00;100991.30;1727152;80;21205;-50
2022/11/11 09:37:56;;;;;;;14.65;10.15;;;;;;;10.77;100.00;100991.30;1726634;80;21160;-50
2022/11/11 09:41:20;;;;;;;15.50;10.80;;;;;;;10.77;100.00;100984.58;1731745;80;21088;-49
2022/11/11 09:44:26;;;;;;;12.35;7.83;;;;;;;10.77;100.00;100983.23;1729670;80;21804;-49
2022/11/11 09:47:47;;;;;;;13.18;9.88;;;;;;;10.77;100.00;100985.92;1726747;82;22153;-49
2022/11/11 09:50:34;;;;;;;11.40;8.70;;;;;;;10.84;100.00;100982.11;1637810;82;21240;-49
2022/11/11 09:53:25;;;;;;;14.43;9.48;;;;;;;10.89;100.00;100976.57;1725249;82;21097;-49
2022/11/11 09:56:17;;;;;;;13.68;9.90;;;;;;;10.95;100.00;100979.10;1724731;80;21065;-49
2022/11/11 09:59:13;;;;;;;7.92;7.12;;;;;;;10.99;100.00;100979.41;1725271;80;21835;-50
2022/11/11 10:01:58;;;;;;;13.85;8.35;;;;;;;11.04;100.00;100979.29;1730067;80;21907;-49
2022/11/11 10:05:00;;;;;;;14.68;8.58;;;;;;;11.07;100.00;100981.86;1728159;80;21630;-49
2022/11/11 10:08:00;;;;;;;10.70;8.85;;;;;;;11.10;100.00;100980.44;1726978;80;21072;-49
2022/11/11 10:10:47;;;;;;;11.45;8.85;;;;;;;11.13;100.00;100989.32;1727301;80;20983;-50
2022/11/11 10:13:34;;;;;;;16.12;8.75;;;;;;;11.13;100.00;100989.32;1728964;80;21841;-50
2022/11/11 10:17:01;;;;;;;9.38;8.00;;;;;;;11.14;100.00;100985.70;1726443;80;21161;-50
2022/11/11 10:20:19;;;;;;;11.15;7.83;;;;;;;11.13;100.00;100985.28;1730151;80;21356;-50
2022/11/11 10:23:17;;;;;;;11.05;7.83;;;;;;;11.11;100.00;100981.74;1733576;80;21033;-50
2022/11/11 10:26:20;;;;;;;10.85;7.80;;;;;;;11.10;100.00;100990.75;1729508;80;21082;-50
2022/11/11 10:29:26;;;;;;;11.63;9.07;;;;;;;11.10;100.00;100971.89;1764134;78;23379;-50
2022/11/11 10:32:31;;;;;;;12.03;9.05;;;;;;;11.11;100.00;100989.83;1740531;80;21103;-50
2022/11/11 10:35:21;;;;;;;10.15;7.30;;;;;;;11.06;100.00;100983.67;1740054;80;22468;-50
2022/11/11 10:38:37;;;;;;;8.05;6.65;;;;;;;11.06;100.00;100983.67;1741411;80;21080;-50
2022/11/11 10:41:35;;;;;;;10.53;7.17;;;;;;;11.05;100.00;100985.98;1742703;80;21120;-49
2022/11/11 10:44:27;;;;;;;9.48;7.55;;;;;;;11.04;100.00;100978.83;1736929;80;21081;-50
2022/11/11 10:47:44;;;;;;;7.72;6.87;;;;;;;11.05;100.00;100973.86;1747479;80;21041;-50
2022/11/11 10:50:49;;;;;;;6.72;6.03;;;;;;;11.17;100.00;100967.18;1735301;80;21956;-50
2022/11/11 10:54:06;;;;;;;7.33;5.92;;;;;;;11.17;100.00;100967.18;1740803;80;21076;-49
2022/11/11 10:57:15;;;;;;;8.55;6.80;;;;;;;11.27;100.00;100969.55;1735366;80;21084;-49
2022/11/11 11:00:08;;;;;;;8.18;5.25;;;;;;;11.35;100.00;100968.84;1743050;80;21060;-50
2022/11/11 11:02:58;;;;;;;8.80;6.25;;;;;;;11.43;100.00;100963.66;1743038;80;21492;-50
2022/11/11 11:06:29;;;;;;;8.73;6.05;;;;;;;11.47;100.00;100969.37;1742895;80;21385;-49
2022/11/11 11:09:24;;;;;;;9.15;6.10;;;;;;;11.47;100.00;100964.88;1747091;80;21114;-49
2022/11/11 11:12:18;;;;;;;9.07;4.83;;;;;;;11.53;100.00;100969.17;1709317;81;21081;-49
2022/11/11 11:15:09;;;;;;;9.53;4.43;;;;;;;11.55;100.00;100965.97;1715623;81;21071;-49
2022/11/11 11:18:11;;;;;;;8.60;4.55;;;;;;;11.55;100.00;100971.36;1694851;81;21166;-49
2022/11/11 11:21:01;;;;;;;5.20;4.70;;;;;;;11.58;100.00;100965.84;1709607;81;21896;-49
2022/11/11 11:23:46;;;;;;;5.87;5.12;;;;;;;11.57;100.00;100968.16;1714536;81;21125;-49
2022/11/11 11:26:47;;;;;;;6.12;5.22;;;;;;;11.58;100.00;100972.58;1712302;81;21104;-49
2022/11/11 11:29:41;;;;;;;4.90;3.58;;;;;;;11.56;100.00;100972.66;1699295;81;21053;-49
2022/11/11 11:32:30;;;;;;;4.60;4.20;;;;;;;11.56;100.00;100970.43;1699254;82;21129;-49
2022/11/11 11:35:41;;;;;;;3.92;3.62;;;;;;;11.49;100.00;100962.98;1697532;82;21562;-49
2022/11/11 11:38:42;;;;;;;4.92;3.00;;;;;;;11.45;100.00;100961.80;1703563;82;21084;-49
2022/11/11 11:41:42;;;;;;;5.05;3.80;;;;;;;11.48;100.00;100968.45;1697134;82;21087;-49
2022/11/11 11:44:35;;;;;;;5.78;3.95;;;;;;;11.51;100.00;100965.63;1697559;82;21412;-49
2022/11/11 11:47:45;;;;;;;7.03;3.10;;;;;;;11.57;100.00;100968.16;1698490;82;21069;-50
2022/11/11 11:50:58;;;;;;;5.35;3.50;;;;;;;11.60;100.00;100963.52;1698199;82;23008;-49
2022/11/11 11:54:14;;;;;;;4.97;4.47;;;;;;;11.64;100.00;100970.59;1696282;82;21083;-48
2022/11/11 11:57:03;;;;;;;4.83;4.12;;;;;;;11.71;100.00;100969.45;1695758;82;21081;-47
2022/11/11 11:59:56;;;;;;;5.30;4.78;;;;;;;11.80;100.00;100962.01;1702755;82;21049;-47
2022/11/11 12:02:56;;;;;;;5.67;4.58;;;;;;;11.88;100.00;100968.02;1700368;82;21720;-47
2022/11/11 12:05:48;;;;;;;4.80;3.45;;;;;;;11.93;100.00;100967.38;1699791;82;21602;-47
2022/11/11 12:08:57;;;;;;;5.22;4.03;;;;;;;11.95;100.00;100971.80;1697173;82;21487;-48
2022/11/11 12:12:11;;;;;;;4.50;3.98;;;;;;;11.95;100.00;100973.62;1695639;82;21079;-48
2022/11/11 12:15:32;;;;;;;3.42;2.98;;;;;;;11.92;100.00;100965.16;1697660;82;21100;-50
2022/11/11 12:19:03;;;;;;;6.58;3.20;;;;;;;11.90;100.00;100974.26;1698709;82;21049;-49
2022/11/11 12:22:09;;;;;;;3.00;2.65;;;;;;;11.86;100.00;100974.81;1697951;82;21846;-48
2022/11/11 12:25:03;;;;;;;4.65;3.10;;;;;;;11.84;100.00;100975.80;1671995;82;21582;-47
2022/11/11 12:28:02;;;;;;;;;;;;;;;11.82;100.00;100967.78;1702654;82;21787;-49
2022/11/11 12:30:52;;;;;;;2.80;2.20;;;;;;;11.81;100.00;100975.45;1701011;82;20830;-47
2022/11/11 12:33:52;;;;;;;2.80;2.22;;;;;;;11.81;100.00;100971.88;1697170;82;21058;-49
2022/11/11 12:36:57;;;;;;;4.58;2.45;;;;;;;11.77;100.00;100977.82;1697356;82;21779;-49
2022/11/11 12:40:03;;;;;;;4.83;3.55;;;;;;;11.76;100.00;100981.45;1699108;82;21106;-48
2022/11/11 12:43:12;;;;;;;6.53;3.65;;;;;;;11.73;100.00;100978.38;1698639;82;21142;-47
2022/11/11 12:46:02;;;;;;;6.45;3.37;;;;;;;11.69;100.00;100992.00;1702201;82;21081;-50
2022/11/11 12:49:06;;;;;;;6.17;3.20;;;;;;;11.63;100.00;100993.09;1699864;82;21673;-48
2022/11/11 12:52:05;;;;;;;4.00;3.55;;;;;;;11.58;100.00;100990.11;1696834;82;22285;-48
2022/11/11 12:55:32;;;;;;;8.95;2.98;;;;;;;11.54;100.00;100994.74;1697555;82;21697;-48
2022/11/11 12:58:24;;;;;;;2.30;1.72;;;;;;;11.51;100.00;100992.59;1699657;82;21096;-50
2022/11/11 13:01:38;;;;;;;1.42;1.27;;;;;;;11.48;100.00;100996.77;1698290;82;21136;-49
2022/11/11 13:04:50;;;;;;;2.42;1.20;;;;;;;11.48;100.00;100995.41;1695090;82;21072;-50
2022/11/11 13:07:59;;;;;;;6.05;1.72;;;;;;;11.46;100.00;101000.84;1701928;82;21955;-50
2022/11/11 13:11:03;;;;;;;3.10;2.12;;;;;;;11.46;100.00;101012.09;1699647;82;21452;-50
2022/11/11 13:14:23;;;;;;;2.65;1.77;;;;;;;11.46;100.00;101008.94;1695529;82;21045;-49
2022/11/11 13:17:12;;;;;;;4.47;2.90;;;;;;;11.45;100.00;101006.28;1704176;82;21084;-49
2022/11/11 13:20:02;;;;;;;6.17;2.80;;;;;;;11.43;100.00;101016.23;1699860;82;21099;-50
2022/11/11 13:22:49;;;;;;;3.45;2.58;;;;;;;11.38;100.00;101015.04;1703423;82;22765;-49
2022/11/11 13:25:34;;;;;;;3.83;2.25;;;;;;;11.32;100.00;101022.83;1700977;82;21061;-50
2022/11/11 13:28:30;;;;;;;1.70;1.27;;;;;;;11.28;100.00;101025.22;1703740;82;21090;-50
2022/11/11 13:31:29;;;;;;;2.12;1.57;;;;;;;11.23;100.00;101024.47;1697167;82;21064;-50
2022/11/11 13:34:14;;;;;;;2.22;1.82;;;;;;;11.19;100.00;101025.50;1704653;82;21040;-49
2022/11/11 13:37:02;;;;;;;2.35;1.32;;;;;;;11.16;100.00;101026.94;1696416;82;21755;-50
2022/11/11 13:39:48;;;;;;;4.30;1.65;;;;;;;11.12;100.00;101029.32;1702102;82;21113;-50
2022/11/11 13:42:40;;;;;;;4.10;1.60;;;;;;;11.11;100.00;101036.09;1698366;82;21654;-50
2022/11/11 13:45:29;;;;;;;3.83;1.85;;;;;;;11.10;100.00;101037.02;1698223;82;21805;-50
2022/11/11 13:48:27;;;;;;;4.22;2.00;;;;;;;11.07;100.00;101039.33;1700276;82;21090;-50
2022/11/11 13:51:40;;;;;;;5.83;1.92;;;;;;;11.07;100.00;101039.33;1695205;82;23352;-49
2022/11/11 13:54:40;;;;;;;2.40;2.20;;;;;;;11.06;100.00;101053.73;1697844;82;21274;-49
2022/11/11 13:57:30;;;;;;;3.58;1.87;;;;;;;11.07;100.00;101048.77;1696750;82;21476;-50
2022/11/11 14:00:21;;;;;;;4.08;2.80;;;;;;;11.07;100.00;101058.66;1695355;82;21083;-50
2022/11/11 14:03:22;;;;;;;4.15;2.25;;;;;;;11.04;100.00;101054.27;1697660;82;21083;-50
2022/11/11 14:06:19;;;;;;;2.50;1.77;;;;;;;11.02;100.00;101058.81;1699618;82;23033;-50
2022/11/11 14:09:06;;;;;;;3.87;2.60;;;;;;;10.97;100.00;101061.63;1695647;82;21579;-50
2022/11/11 14:12:13;;;;;;;3.77;1.80;;;;;;;10.93;100.00;101064.47;1681640;82;21061;-50
2022/11/11 14:15:02;;;;;;;3.05;2.72;;;;;;;10.89;100.00;101060.08;1689228;82;21097;-50
2022/11/11 14:17:47;;;;;;;5.05;4.55;;;;;;;10.85;100.00;101063.34;1697237;82;21084;-50
2022/11/11 14:20:39;;;;;;;3.45;3.02;;;;;;;10.83;100.00;101070.58;1698274;82;23054;-50